Aérodrome :
LOGIN :

S'inscrire | Disclaimer

   EN    FR    IT 

 










Légende :    VFR   VFR Marginal   IFR   IFR Intensif   IFR Très Intensif
Visi : 
Plafond : 
>= 8 km
>= 3000ft
5 à 8 km
1000 à 3000 ft
1500m à 5 km
500 à 1000 ft
800 à 1500m
200 à 500 ft
< 800m
< 200 ft
Symboles :   Orages  Brouillard  Fortes neiges  Fortes précipitations  Vent > 20 kt
SIGMETs :   Divers  Orages  Givrage  Turbulence  Onde Orograph.  Cendres Volcan.






- Altitude de l'aérodrome : 11444 ft


LIMH - Pian Rosa

DERNIER METAR :
  • 210055Z 16009G23KT 110V220 0100 FZFG NSC M02/M03 Q1023 RMK SKC MON INVIS VAL INVIS VIS MIN 0100

METARs EXPIRÉS :
  • 202355Z 15022G33KT 120V190 0100 FZFG VV/// M02/M03 Q1022 RMK MON INVIS VAL INVIS VIS MIN 0100
  • 202255Z VRB10G21KT 0100 FZFG VV/// M02/M03 Q1023 RMK MON INVIS VAL INVIS VIS MIN 0100

TAF N/A



MET'MAP, la Météo Aéronautique d'un coup d'oeil ! - Copyright ORBIFLY Décembre 2007 - Disclaimer

ORBIFLY MET'MAP TEAM :

Programmation & Développement : Alexandra Zaïnal
Conception & Développement : Baudouin d'Aumeries
Co-Programmation & Développement : Marc-Olivier Méhu
Soutien technique & logistique : Manuel Goepfert

Contact : metmap@orbifly.com




SOURCES & CREDITS :

   NOAA